createdAt,value
2018-09-01T00:02:23.140Z,5.43
2018-09-01T00:04:50.563Z,4.83
2018-09-01T00:07:18.056Z,5.07
2018-09-01T00:09:45.422Z,4.90
2018-09-01T00:12:12.828Z,4.77
2018-09-01T00:14:40.255Z,3.93
2018-09-01T00:17:07.660Z,3.80
2018-09-01T00:19:35.082Z,4.30
2018-09-01T00:22:02.484Z,4.40
2018-09-01T00:24:29.900Z,4.03
2018-09-01T00:26:57.326Z,4.23
2018-09-01T00:29:24.739Z,4.00
2018-09-01T00:31:52.154Z,5.13
2018-09-01T00:34:19.601Z,5.30
2018-09-01T00:36:47.007Z,4.43
2018-09-01T00:39:14.438Z,3.93
2018-09-01T00:41:41.867Z,4.00
2018-09-01T00:44:09.260Z,3.97
2018-09-01T00:46:36.702Z,4.33
2018-09-01T00:49:04.097Z,4.77
2018-09-01T00:51:31.522Z,4.73
2018-09-01T00:53:58.952Z,4.87
2018-09-01T00:56:26.392Z,4.93
2018-09-01T00:58:53.822Z,5.10
2018-09-01T01:01:21.236Z,4.50
2018-09-01T01:03:48.657Z,5.07
2018-09-01T01:06:16.071Z,4.37
2018-09-01T01:08:43.551Z,4.57
2018-09-01T01:11:10.911Z,4.30
2018-09-01T01:13:38.334Z,4.77
2018-09-01T01:16:05.740Z,5.60
2018-09-01T01:18:33.177Z,4.33
2018-09-01T01:21:00.584Z,4.60
2018-09-01T01:23:27.986Z,3.87
2018-09-01T01:25:55.406Z,4.13
2018-09-01T01:28:22.810Z,4.07
2018-09-01T01:30:50.240Z,4.47
2018-09-01T01:33:17.644Z,5.27
2018-09-01T01:35:45.085Z,4.70
2018-09-01T01:38:12.485Z,5.10
2018-09-01T01:40:39.905Z,4.27
2018-09-01T01:43:07.319Z,4.87
2018-09-01T01:45:34.743Z,4.60
2018-09-01T01:48:02.153Z,4.30
2018-09-01T01:50:29.579Z,4.23
2018-09-01T01:52:56.971Z,5.13
2018-09-01T01:55:24.420Z,4.33
2018-09-01T01:57:51.820Z,5.90
2018-09-01T02:00:19.240Z,4.93
2018-09-01T02:02:46.639Z,5.13
2018-09-01T02:05:14.058Z,5.30
2018-09-01T02:07:41.452Z,4.90
2018-09-01T02:10:08.896Z,5.00
2018-09-01T02:12:36.302Z,4.70
2018-09-01T02:15:03.711Z,4.83
2018-09-01T02:17:31.142Z,5.10
2018-09-01T02:19:58.542Z,5.20
2018-09-01T02:22:25.964Z,4.83
2018-09-01T02:24:53.389Z,5.10
2018-09-01T02:27:20.829Z,5.13
2018-09-01T02:29:48.217Z,5.60
2018-09-01T02:32:15.648Z,5.53
2018-09-01T02:34:43.042Z,5.37
2018-09-01T02:37:10.435Z,5.30
2018-09-01T02:39:37.854Z,5.80
2018-09-01T02:42:05.260Z,5.17
2018-09-01T02:44:32.673Z,5.50
2018-09-01T02:47:00.131Z,5.70
2018-09-01T02:49:27.500Z,4.40
2018-09-01T02:51:54.912Z,5.40
2018-09-01T02:54:22.332Z,6.50
2018-09-01T02:56:49.743Z,4.33
2018-09-01T02:59:17.166Z,5.57
2018-09-01T03:01:44.568Z,5.33
2018-09-01T03:04:11.989Z,4.90
2018-09-01T03:06:39.421Z,4.60
2018-09-01T03:09:06.901Z,4.67
2018-09-01T03:11:34.301Z,4.03
2018-09-01T03:14:01.728Z,5.00
2018-09-01T03:16:29.157Z,5.20
2018-09-01T03:18:56.584Z,4.80
2018-09-01T03:21:23.984Z,4.17
2018-09-01T03:23:51.403Z,4.20
2018-09-01T03:26:18.816Z,4.13
2018-09-01T03:28:46.220Z,5.10
2018-09-01T03:31:13.641Z,4.77
2018-09-01T03:33:41.055Z,5.17
2018-09-01T03:36:08.489Z,4.80
2018-09-01T03:38:35.887Z,4.93
2018-09-01T03:41:03.328Z,5.50
2018-09-01T03:43:30.726Z,5.13
2018-09-01T03:45:58.154Z,5.20
2018-09-01T03:48:25.570Z,5.93
2018-09-01T03:50:52.997Z,5.80
2018-09-01T03:53:20.405Z,6.33
2018-09-01T03:55:47.845Z,5.57
2018-09-01T03:58:15.236Z,5.77
2018-09-01T04:00:42.668Z,6.47
2018-09-01T04:03:10.094Z,5.90
2018-09-01T04:05:37.527Z,6.37
2018-09-01T04:08:04.952Z,4.90
2018-09-01T04:10:32.387Z,5.60
2018-09-01T04:12:59.837Z,6.27
2018-09-01T04:15:27.270Z,6.00
2018-09-01T04:17:54.690Z,5.93
2018-09-01T04:20:22.122Z,5.73
2018-09-01T04:22:49.525Z,5.90
2018-09-01T04:25:16.954Z,5.70
2018-09-01T04:27:44.376Z,6.73
2018-09-01T04:30:11.779Z,8.30
2018-09-01T04:32:39.189Z,7.80
2018-09-01T04:35:06.585Z,8.17
2018-09-01T04:37:34.009Z,7.07
2018-09-01T04:40:01.449Z,8.03
2018-09-01T04:42:28.850Z,6.67
2018-09-01T04:44:56.262Z,6.77
2018-09-01T04:47:23.688Z,6.37
2018-09-01T04:49:51.101Z,5.70
2018-09-01T04:52:18.569Z,6.70
2018-09-01T04:54:45.978Z,6.57
2018-09-01T04:57:13.401Z,7.00
2018-09-01T04:59:40.817Z,6.67
2018-09-01T05:02:08.214Z,6.00
2018-09-01T05:04:35.649Z,7.13
2018-09-01T05:07:03.075Z,6.03
2018-09-01T05:09:30.468Z,6.67
2018-09-01T05:11:57.893Z,8.07
2018-09-01T05:14:25.287Z,6.03
2018-09-01T05:16:52.699Z,6.13
2018-09-01T05:19:20.104Z,5.60
2018-09-01T05:21:47.514Z,5.73
2018-09-01T05:24:14.928Z,5.90
2018-09-01T05:26:42.348Z,6.07
2018-09-01T05:29:09.773Z,5.63
2018-09-01T05:31:37.168Z,5.87
2018-09-01T05:34:04.591Z,6.77
2018-09-01T05:36:32.078Z,5.93
2018-09-01T05:38:59.418Z,7.30
2018-09-01T05:41:26.845Z,6.07
2018-09-01T05:43:54.329Z,5.50
2018-09-01T05:46:21.727Z,7.37
2018-09-01T05:48:49.159Z,6.13
2018-09-01T05:51:16.573Z,7.33
2018-09-01T05:53:43.998Z,7.93
2018-09-01T05:56:11.436Z,7.13
2018-09-01T05:58:38.826Z,7.00
2018-09-01T06:01:06.250Z,8.00
2018-09-01T06:03:33.692Z,8.37
2018-09-01T06:06:01.214Z,7.67
2018-09-01T06:08:28.491Z,7.83
2018-09-01T06:10:55.929Z,8.27
2018-09-01T06:13:23.359Z,9.53
2018-09-01T06:15:50.767Z,9.97
2018-09-01T06:18:18.207Z,9.40
2018-09-01T06:20:45.643Z,8.70
2018-09-01T06:23:13.050Z,8.27
2018-09-01T06:25:40.483Z,9.03
2018-09-01T06:28:07.884Z,9.67
2018-09-01T06:30:35.311Z,10.00
2018-09-01T06:33:02.822Z,7.00
2018-09-01T06:35:30.146Z,7.30
2018-09-01T06:37:57.543Z,8.67
2018-09-01T06:40:24.954Z,6.43
2018-09-01T06:42:52.405Z,8.27
2018-09-01T06:45:19.799Z,6.70
2018-09-01T06:47:47.225Z,6.90
2018-09-01T06:50:14.665Z,6.37
2018-09-01T06:52:42.061Z,7.40
2018-09-01T06:55:09.487Z,8.20
2018-09-01T06:57:36.888Z,7.03
2018-09-01T07:00:04.322Z,8.40
2018-09-01T07:02:31.739Z,7.90
2018-09-01T07:04:59.178Z,6.90
2018-09-01T07:07:26.590Z,6.67
2018-09-01T07:09:54.014Z,6.13
2018-09-01T07:12:21.440Z,5.80
2018-09-01T07:14:48.848Z,8.10
2018-09-01T07:17:16.275Z,6.57
2018-09-01T07:19:43.694Z,7.03
2018-09-01T07:22:11.128Z,8.77
2018-09-01T07:24:38.535Z,8.10
2018-09-01T07:27:05.977Z,7.70
2018-09-01T07:29:33.365Z,8.53
2018-09-01T07:32:00.805Z,7.37
2018-09-01T07:34:28.212Z,8.03
2018-09-01T07:36:55.666Z,7.93
2018-09-01T07:39:23.125Z,9.47
2018-09-01T07:41:50.535Z,10.17
2018-09-01T07:44:17.943Z,10.00
2018-09-01T07:46:45.373Z,8.50
2018-09-01T07:49:12.804Z,10.83
2018-09-01T07:51:40.228Z,8.27
2018-09-01T07:54:07.653Z,9.33
2018-09-01T07:56:35.098Z,7.33
2018-09-01T07:59:02.508Z,6.43
2018-09-01T08:01:29.918Z,8.03
2018-09-01T08:03:57.341Z,7.70
2018-09-01T08:06:24.749Z,8.00
2018-09-01T08:08:52.181Z,7.13
2018-09-01T08:11:19.591Z,7.20
2018-09-01T08:13:47.120Z,7.17
2018-09-01T08:16:14.430Z,6.30
2018-09-01T08:18:41.852Z,6.40
2018-09-01T08:21:09.289Z,7.50
2018-09-01T08:23:36.733Z,7.63
2018-09-01T08:26:04.138Z,6.83
2018-09-01T08:28:31.556Z,7.70
2018-09-01T08:30:58.985Z,7.17
2018-09-01T08:33:26.396Z,7.50
2018-09-01T08:35:53.834Z,7.20
2018-09-01T08:38:21.235Z,7.90
2018-09-01T08:40:48.677Z,6.90
2018-09-01T08:43:16.089Z,7.30
2018-09-01T08:45:43.510Z,6.37
2018-09-01T08:48:10.919Z,6.33
2018-09-01T08:50:38.342Z,5.70
2018-09-01T08:53:05.753Z,6.97
2018-09-01T08:55:33.178Z,6.23
2018-09-01T08:58:00.600Z,6.00
2018-09-01T09:00:28.032Z,6.17
2018-09-01T09:02:55.420Z,7.20
2018-09-01T09:05:22.822Z,5.03
2018-09-01T09:07:50.245Z,5.90
2018-09-01T09:10:17.661Z,5.60
2018-09-01T09:12:45.086Z,5.00
2018-09-01T09:15:12.489Z,6.13
2018-09-01T09:17:39.917Z,6.43
2018-09-01T09:20:07.334Z,4.63
2018-09-01T09:22:34.765Z,5.63
2018-09-01T09:25:02.157Z,3.73
2018-09-01T09:27:29.561Z,4.50
2018-09-01T09:29:56.985Z,4.50
2018-09-01T09:32:24.411Z,5.20
2018-09-01T09:34:51.868Z,4.90
2018-09-01T09:37:19.286Z,4.50
2018-09-01T09:39:46.734Z,5.00
2018-09-01T09:42:14.158Z,4.97
2018-09-01T09:44:41.598Z,4.83
2018-09-01T09:47:09.007Z,4.70
2018-09-01T09:49:36.445Z,5.37
2018-09-01T09:52:03.859Z,4.97
2018-09-01T09:54:31.290Z,4.20
2018-09-01T09:56:58.683Z,4.73
2018-09-01T09:59:26.087Z,5.47
2018-09-01T10:01:53.522Z,4.30
2018-09-01T10:04:20.946Z,3.90
2018-09-01T10:06:48.366Z,4.07
2018-09-01T10:09:15.789Z,3.70
2018-09-01T10:11:43.262Z,3.60
2018-09-01T10:14:10.661Z,3.50
2018-09-01T10:16:38.097Z,2.97
2018-09-01T10:19:05.519Z,3.37
2018-09-01T10:21:32.950Z,3.00
2018-09-01T10:24:00.353Z,2.77
2018-09-01T10:26:27.796Z,3.07
2018-09-01T10:28:55.208Z,3.60
2018-09-01T10:31:22.656Z,3.50
2018-09-01T10:33:50.085Z,3.20
2018-09-01T10:36:17.532Z,3.60
2018-09-01T10:38:44.958Z,3.03
2018-09-01T10:41:12.374Z,3.03
2018-09-01T10:43:39.796Z,3.10
2018-09-01T10:46:07.203Z,3.40
2018-09-01T10:48:34.648Z,4.20
2018-09-01T10:51:02.091Z,3.47
2018-09-01T10:53:29.528Z,3.40
2018-09-01T10:55:56.935Z,2.73
2018-09-01T10:58:24.340Z,4.33
2018-09-01T11:00:51.784Z,3.87
2018-09-01T11:03:19.189Z,4.03
2018-09-01T11:05:46.605Z,3.77
2018-09-01T11:08:14.010Z,3.57
2018-09-01T11:10:41.457Z,3.20
2018-09-01T11:13:08.865Z,3.83
2018-09-01T11:15:36.289Z,3.13
2018-09-01T11:18:03.718Z,3.60
2018-09-01T11:20:31.113Z,3.17
2018-09-01T11:22:58.526Z,2.93
2018-09-01T11:25:25.963Z,2.50
2018-09-01T11:27:53.419Z,2.50
2018-09-01T11:30:20.809Z,2.80
2018-09-01T11:32:48.249Z,2.67
2018-09-01T11:35:15.651Z,2.87
2018-09-01T11:37:43.076Z,3.30
2018-09-01T11:40:10.579Z,2.73
2018-09-01T11:42:38.084Z,3.30
2018-09-01T11:45:05.393Z,2.90
2018-09-01T11:47:32.854Z,3.13
2018-09-01T11:50:00.342Z,2.50
2018-09-01T11:52:27.701Z,2.43
2018-09-01T11:54:55.267Z,2.60
2018-09-01T11:57:22.560Z,2.20
2018-09-01T11:59:49.950Z,2.80
2018-09-01T12:02:17.394Z,2.40
2018-09-01T12:04:44.804Z,3.17
2018-09-01T12:07:12.603Z,3.07
2018-09-01T12:09:39.889Z,2.77
2018-09-01T12:12:07.316Z,2.83
2018-09-01T12:14:34.727Z,2.70
2018-09-01T12:17:02.191Z,2.00
2018-09-01T12:19:29.576Z,1.83
2018-09-01T12:21:57.036Z,2.30
2018-09-01T12:24:24.454Z,2.40
2018-09-01T12:26:51.863Z,2.50
2018-09-01T12:29:19.295Z,2.60
2018-09-01T12:31:46.710Z,2.10
2018-09-01T12:34:14.141Z,2.25
2018-09-01T12:36:41.603Z,2.10
2018-09-01T12:39:09.014Z,2.10
2018-09-01T12:41:36.441Z,2.13
2018-09-01T12:44:03.847Z,1.90
2018-09-01T12:46:31.261Z,2.23
2018-09-01T12:48:58.679Z,1.90
2018-09-01T12:51:26.100Z,1.87
2018-09-01T12:53:53.528Z,2.00
2018-09-01T12:56:20.942Z,2.30
2018-09-01T12:58:48.364Z,2.10
2018-09-01T13:01:15.782Z,2.27
2018-09-01T13:03:43.210Z,2.00
2018-09-01T13:06:10.631Z,2.07
2018-09-01T13:08:38.059Z,2.50
2018-09-01T13:11:05.600Z,2.13
2018-09-01T13:13:33.025Z,2.27
2018-09-01T13:16:00.439Z,2.00
2018-09-01T13:18:27.857Z,1.60
2018-09-01T13:20:55.268Z,1.97
2018-09-01T13:23:22.700Z,1.73
2018-09-01T13:25:50.108Z,2.10
2018-09-01T13:28:17.550Z,1.50
2018-09-01T13:30:44.961Z,1.50
2018-09-01T13:33:12.405Z,1.90
2018-09-01T13:35:39.821Z,2.10
2018-09-01T13:38:07.270Z,1.70
2018-09-01T13:40:34.691Z,1.70
2018-09-01T13:43:02.116Z,2.13
2018-09-01T13:45:29.558Z,1.60
2018-09-01T13:47:56.996Z,2.13
2018-09-01T13:50:24.407Z,1.90
2018-09-01T13:52:51.811Z,1.80
2018-09-01T13:55:19.247Z,2.03
2018-09-01T13:57:46.706Z,1.87
2018-09-01T14:00:14.098Z,2.23
2018-09-01T14:02:41.529Z,1.80
2018-09-01T14:05:08.971Z,2.00
2018-09-01T14:07:36.386Z,2.00
2018-09-01T14:10:03.812Z,1.80
2018-09-01T14:12:31.206Z,2.13
2018-09-01T14:14:58.627Z,2.20
2018-09-01T14:17:26.074Z,1.87
2018-09-01T14:19:53.461Z,1.90
2018-09-01T14:22:20.893Z,2.10
2018-09-01T14:24:48.285Z,2.07
2018-09-01T14:27:15.725Z,2.30
2018-09-01T14:29:43.129Z,1.77
2018-09-01T14:32:10.595Z,2.50
2018-09-01T14:34:38.044Z,2.40
2018-09-01T14:37:05.475Z,2.33
2018-09-01T14:39:32.875Z,2.57
2018-09-01T14:42:00.325Z,2.27
2018-09-01T14:44:27.755Z,2.57
2018-09-01T14:46:55.240Z,2.27
2018-09-01T14:49:22.641Z,2.30
2018-09-01T14:51:50.079Z,2.40
2018-09-01T14:54:17.481Z,2.40
2018-09-01T14:56:44.985Z,2.43
2018-09-01T14:59:12.423Z,2.30
2018-09-01T15:01:39.851Z,2.40
2018-09-01T15:04:07.260Z,2.80
2018-09-01T15:06:34.690Z,2.80
2018-09-01T15:09:02.197Z,2.73
2018-09-01T15:11:33.026Z,2.63
2018-09-01T15:13:59.226Z,2.77
2018-09-01T15:16:28.952Z,2.50
2018-09-01T15:18:56.348Z,2.97
2018-09-01T15:21:23.784Z,2.80
2018-09-01T15:23:51.192Z,2.70
2018-09-01T15:26:18.598Z,4.17
2018-09-01T15:28:46.019Z,3.03
2018-09-01T15:31:13.434Z,3.07
2018-09-01T15:33:40.851Z,3.10
2018-09-01T15:36:08.259Z,3.37
2018-09-01T15:38:35.690Z,2.83
2018-09-01T15:41:03.100Z,2.73
2018-09-01T15:43:30.540Z,2.83
2018-09-01T15:45:57.951Z,2.90
2018-09-01T15:48:25.354Z,3.27
2018-09-01T15:50:52.778Z,2.40
2018-09-01T15:53:20.186Z,2.87
2018-09-01T15:55:47.623Z,2.73
2018-09-01T15:58:15.039Z,2.57
2018-09-01T16:00:42.491Z,2.23
2018-09-01T16:03:09.885Z,3.33
2018-09-01T16:05:39.054Z,2.90
2018-09-01T16:08:06.480Z,2.40
2018-09-01T16:10:33.928Z,2.40
2018-09-01T16:13:01.315Z,2.20
2018-09-01T16:15:28.760Z,2.23
2018-09-01T16:17:56.157Z,2.60
2018-09-01T16:20:23.672Z,2.50
2018-09-01T16:22:51.052Z,2.50
2018-09-01T16:25:18.480Z,2.47
2018-09-01T16:27:45.889Z,2.47
2018-09-01T16:30:13.380Z,2.77
2018-09-01T16:32:40.806Z,2.37
2018-09-01T16:35:10.712Z,1.83
2018-09-01T16:37:38.273Z,2.37
2018-09-01T16:40:07.102Z,2.40
2018-09-01T16:42:33.139Z,2.07
2018-09-01T16:45:00.538Z,1.97
2018-09-01T16:47:27.991Z,2.80
2018-09-01T16:49:55.437Z,2.43
2018-09-01T16:52:23.798Z,2.97
2018-09-01T16:54:51.238Z,2.47
2018-09-01T16:57:18.642Z,1.80
2018-09-01T16:59:46.090Z,2.40
2018-09-01T17:02:13.517Z,2.33
2018-09-01T17:04:40.960Z,2.20
2018-09-01T17:07:08.384Z,2.30
2018-09-01T17:09:35.928Z,5.40
2018-09-01T17:12:03.306Z,2.80
2018-09-01T17:14:30.786Z,1.90
2018-09-01T17:16:58.181Z,1.97
2018-09-01T17:19:25.609Z,1.97
2018-09-01T17:21:53.012Z,2.10
2018-09-01T17:24:20.420Z,2.37
2018-09-01T17:26:47.850Z,2.43
2018-09-01T17:29:15.308Z,1.90
2018-09-01T17:31:42.735Z,2.10
2018-09-01T17:34:10.141Z,2.30
2018-09-01T17:36:37.575Z,1.87
2018-09-01T17:39:05.003Z,2.00
2018-09-01T17:41:32.432Z,4.37
2018-09-01T17:43:59.829Z,5.87
2018-09-01T17:46:27.267Z,2.67
2018-09-01T17:48:54.678Z,2.73
2018-09-01T17:51:22.099Z,4.13
2018-09-01T17:53:49.520Z,3.47
2018-09-01T17:56:16.944Z,5.10
2018-09-01T17:58:44.376Z,3.10
2018-09-01T18:01:11.770Z,2.87
2018-09-01T18:03:39.172Z,1.83
2018-09-01T18:06:06.603Z,2.20
2018-09-01T18:08:34.017Z,2.87
2018-09-01T18:11:01.432Z,2.37
2018-09-01T18:13:28.869Z,2.20
2018-09-01T18:15:56.289Z,2.40
2018-09-01T18:18:23.707Z,2.57
2018-09-01T18:20:51.123Z,2.70
2018-09-01T18:23:18.562Z,3.00
2018-09-01T18:25:45.978Z,2.30
2018-09-01T18:28:13.412Z,2.37
2018-09-01T18:30:40.824Z,2.50
2018-09-01T18:33:08.267Z,2.50
2018-09-01T18:35:35.680Z,2.80
2018-09-01T18:38:03.186Z,2.90
2018-09-01T18:40:30.596Z,2.70
2018-09-01T18:42:58.004Z,2.67
2018-09-01T18:45:25.413Z,2.40
2018-09-01T18:47:52.856Z,3.17
2018-09-01T18:50:20.266Z,2.97
2018-09-01T18:52:47.754Z,2.70
2018-09-01T18:55:15.174Z,2.30
2018-09-01T18:57:45.184Z,2.77
2018-09-01T19:00:12.719Z,3.73
2018-09-01T19:02:40.126Z,3.20
2018-09-01T19:05:07.552Z,3.27
2018-09-01T19:07:35.000Z,2.63
2018-09-01T19:10:02.402Z,2.70
2018-09-01T19:12:29.804Z,3.20
2018-09-01T19:14:57.262Z,3.40
2018-09-01T19:17:24.663Z,3.50
2018-09-01T19:19:52.151Z,4.53
2018-09-01T19:22:19.587Z,4.33
2018-09-01T19:24:47.026Z,4.33
2018-09-01T19:27:14.475Z,5.90
2018-09-01T19:29:41.915Z,4.20
2018-09-01T19:32:09.374Z,3.50
2018-09-01T19:34:36.819Z,3.70
2018-09-01T19:37:04.275Z,4.70
2018-09-01T19:39:31.736Z,4.10
2018-09-01T19:41:59.199Z,4.40
2018-09-01T19:44:26.619Z,3.37
2018-09-01T19:46:54.105Z,4.30
2018-09-01T19:49:21.510Z,3.90
2018-09-01T19:51:48.977Z,4.60
2018-09-01T19:54:16.382Z,3.97
2018-09-01T19:56:43.876Z,4.80
2018-09-01T19:59:11.271Z,3.40
2018-09-01T20:01:38.781Z,3.70
2018-09-01T20:04:06.202Z,3.40
2018-09-01T20:06:33.606Z,3.90
2018-09-01T20:09:01.083Z,3.77
2018-09-01T20:11:28.473Z,4.13
2018-09-01T20:13:55.954Z,3.67
2018-09-01T20:16:23.362Z,3.30
2018-09-01T20:18:50.866Z,3.53
2018-09-01T20:21:18.236Z,4.00
2018-09-01T20:23:45.683Z,3.60
2018-09-01T20:26:13.126Z,3.10
2018-09-01T20:28:40.494Z,3.13
2018-09-01T20:31:07.945Z,2.83
2018-09-01T20:33:35.352Z,2.90
2018-09-01T20:36:02.857Z,2.83
2018-09-01T20:38:30.258Z,3.23
2018-09-01T20:40:57.703Z,3.10
2018-09-01T20:43:25.145Z,3.60
2018-09-01T20:45:52.588Z,2.97
2018-09-01T20:48:20.016Z,3.30
2018-09-01T20:50:47.436Z,3.00
2018-09-01T20:53:14.930Z,3.00
2018-09-01T20:55:42.398Z,3.00
2018-09-01T20:58:09.826Z,2.97
2018-09-01T21:00:37.237Z,3.43
2018-09-01T21:03:04.711Z,2.50
2018-09-01T21:05:32.201Z,2.70
2018-09-01T21:07:59.635Z,2.80
2018-09-01T21:10:27.149Z,2.60
2018-09-01T21:12:54.485Z,3.00
2018-09-01T21:15:21.921Z,2.83
2018-09-01T21:17:49.370Z,2.90
2018-09-01T21:20:16.834Z,3.07
2018-09-01T21:22:44.237Z,2.90
2018-09-01T21:25:11.675Z,3.07
2018-09-01T21:27:39.080Z,3.20
2018-09-01T21:30:06.548Z,3.13
2018-09-01T21:32:33.910Z,3.00
2018-09-01T21:35:01.353Z,3.00
2018-09-01T21:37:28.746Z,3.10
2018-09-01T21:39:56.268Z,3.03
2018-09-01T21:42:23.696Z,3.10
2018-09-01T21:44:51.071Z,3.20
2018-09-01T21:47:18.523Z,3.37
2018-09-01T21:49:45.979Z,3.33
2018-09-01T21:52:13.365Z,3.47
2018-09-01T21:54:40.807Z,3.23
2018-09-01T21:57:08.312Z,3.30
2018-09-01T21:59:35.658Z,3.50
2018-09-01T22:02:03.096Z,3.20
2018-09-01T22:04:30.504Z,3.30
2018-09-01T22:06:57.940Z,3.30
2018-09-01T22:09:25.377Z,3.77
2018-09-01T22:11:52.769Z,3.33
2018-09-01T22:14:20.201Z,3.30
2018-09-01T22:16:47.642Z,4.13
2018-09-01T22:19:15.049Z,3.60
2018-09-01T22:21:42.452Z,2.87
2018-09-01T22:24:09.904Z,3.03
2018-09-01T22:26:37.305Z,3.57
2018-09-01T22:29:04.702Z,3.17
2018-09-01T22:31:32.254Z,3.60
2018-09-01T22:33:59.588Z,3.10
2018-09-01T22:36:27.010Z,3.00
2018-09-01T22:38:54.421Z,3.30
2018-09-01T22:41:21.846Z,3.43
2018-09-01T22:43:49.260Z,3.40
2018-09-01T22:46:16.696Z,3.30
2018-09-01T22:48:44.102Z,3.63
2018-09-01T22:51:11.535Z,3.70
2018-09-01T22:53:38.932Z,3.00
2018-09-01T22:56:06.368Z,3.70
2018-09-01T22:58:33.765Z,4.13
2018-09-01T23:01:01.220Z,3.50
2018-09-01T23:03:28.637Z,3.37
2018-09-01T23:05:56.069Z,3.57
2018-09-01T23:08:23.503Z,3.47
2018-09-01T23:10:50.911Z,3.90
2018-09-01T23:13:18.348Z,3.80
2018-09-01T23:15:45.746Z,3.80
2018-09-01T23:18:13.171Z,4.00
2018-09-01T23:20:40.570Z,3.77
2018-09-01T23:23:07.991Z,4.20
2018-09-01T23:25:35.383Z,4.10
2018-09-01T23:28:02.804Z,3.73
2018-09-01T23:30:30.213Z,3.50
2018-09-01T23:32:57.642Z,3.20
2018-09-01T23:35:25.041Z,3.60
2018-09-01T23:37:52.471Z,3.40
2018-09-01T23:40:19.914Z,3.13
2018-09-01T23:42:47.322Z,2.87
2018-09-01T23:45:14.769Z,3.30
2018-09-01T23:47:42.159Z,3.23
2018-09-01T23:50:09.594Z,3.63
2018-09-01T23:52:36.993Z,2.93
2018-09-01T23:55:04.442Z,3.53
2018-09-01T23:57:47.105Z,3.10
